sensor_id;sensor_type;location;lat;lon;timestamp;temperature;humidity
6954;DHT22;3516;47.980;8.808;2022-08-18T07:24:24;25.70;73.70
6954;DHT22;3516;47.980;8.808;2022-08-18T07:26:56;25.70;73.70
6954;DHT22;3516;47.980;8.808;2022-08-18T07:29:23;25.70;73.70
6954;DHT22;3516;47.980;8.808;2022-08-18T07:31:50;25.70;73.70
6954;DHT22;3516;47.980;8.808;2022-08-18T07:34:18;25.70;73.70
6954;DHT22;3516;47.980;8.808;2022-08-18T07:36:47;25.70;73.70
6954;DHT22;3516;47.980;8.808;2022-08-18T07:39:21;25.70;73.70
6954;DHT22;3516;47.980;8.808;2022-08-18T07:41:52;25.70;73.70
6954;DHT22;3516;47.980;8.808;2022-08-18T07:44:22;25.70;73.70
6954;DHT22;3516;47.980;8.808;2022-08-18T07:46:54;25.70;73.70
6954;DHT22;3516;47.980;8.808;2022-08-18T07:49:25;25.70;74.50
6954;DHT22;3516;47.980;8.808;2022-08-18T07:51:56;25.60;73.60
6954;DHT22;3516;47.980;8.808;2022-08-18T07:54:28;25.60;73.20
6954;DHT22;3516;47.980;8.808;2022-08-18T07:57:01;25.60;73.20
6954;DHT22;3516;47.980;8.808;2022-08-18T07:59:31;25.60;73.20
6954;DHT22;3516;47.980;8.808;2022-08-18T08:02:06;25.60;73.00
6954;DHT22;3516;47.980;8.808;2022-08-18T08:04:38;25.60;72.90
6954;DHT22;3516;47.980;8.808;2022-08-18T08:07:08;25.60;72.80
6954;DHT22;3516;47.980;8.808;2022-08-18T08:09:39;25.60;72.90
6954;DHT22;3516;47.980;8.808;2022-08-18T08:12:12;25.60;72.80
6954;DHT22;3516;47.980;8.808;2022-08-18T08:14:43;25.50;72.60
6954;DHT22;3516;47.980;8.808;2022-08-18T08:17:11;25.50;72.70
6954;DHT22;3516;47.980;8.808;2022-08-18T08:22:28;25.50;73.00
6954;DHT22;3516;47.980;8.808;2022-08-18T08:24:58;25.50;73.20
6954;DHT22;3516;47.980;8.808;2022-08-18T08:27:30;25.50;73.40
6954;DHT22;3516;47.980;8.808;2022-08-18T08:29:59;25.60;73.40
6954;DHT22;3516;47.980;8.808;2022-08-18T08:32:29;25.50;73.50
6954;DHT22;3516;47.980;8.808;2022-08-18T08:34:58;25.50;73.50
6954;DHT22;3516;47.980;8.808;2022-08-18T08:37:29;25.50;73.50
6954;DHT22;3516;47.980;8.808;2022-08-18T08:39:59;25.50;73.50
6954;DHT22;3516;47.980;8.808;2022-08-18T08:42:32;25.60;73.60
6954;DHT22;3516;47.980;8.808;2022-08-18T08:45:03;25.60;73.60
6954;DHT22;3516;47.980;8.808;2022-08-18T08:47:33;25.60;73.60
6954;DHT22;3516;47.980;8.808;2022-08-18T08:50:03;25.60;73.80
6954;DHT22;3516;47.980;8.808;2022-08-18T08:52:34;25.60;74.00
6954;DHT22;3516;47.980;8.808;2022-08-18T08:55:04;25.60;74.10
6954;DHT22;3516;47.980;8.808;2022-08-18T08:57:32;25.60;74.20
6954;DHT22;3516;47.980;8.808;2022-08-18T09:00:02;25.60;74.30
6954;DHT22;3516;47.980;8.808;2022-08-18T09:02:32;25.60;74.50
6954;DHT22;3516;47.980;8.808;2022-08-18T09:05:02;25.60;74.50
6954;DHT22;3516;47.980;8.808;2022-08-18T09:07:36;25.60;74.50
6954;DHT22;3516;47.980;8.808;2022-08-18T09:12:56;25.70;74.80
6954;DHT22;3516;47.980;8.808;2022-08-18T09:15:34;25.70;74.80
6954;DHT22;3516;47.980;8.808;2022-08-18T09:18:23;25.70;74.90
6954;DHT22;3516;47.980;8.808;2022-08-18T09:20:54;25.70;74.90
6954;DHT22;3516;47.980;8.808;2022-08-18T09:23:25;25.70;74.90
6954;DHT22;3516;47.980;8.808;2022-08-18T09:25:53;25.70;74.90
6954;DHT22;3516;47.980;8.808;2022-08-18T09:28:22;25.70;74.90
6954;DHT22;3516;47.980;8.808;2022-08-18T09:31:14;25.70;74.90
6954;DHT22;3516;47.980;8.808;2022-08-18T09:33:48;25.70;74.90
6954;DHT22;3516;47.980;8.808;2022-08-18T09:36:20;25.70;74.90
6954;DHT22;3516;47.980;8.808;2022-08-18T09:38:51;25.70;74.90
6954;DHT22;3516;47.980;8.808;2022-08-18T09:41:38;25.70;74.90
6954;DHT22;3516;47.980;8.808;2022-08-18T09:44:12;25.70;74.90
6954;DHT22;3516;47.980;8.808;2022-08-18T09:46:52;25.70;74.80
6954;DHT22;3516;47.980;8.808;2022-08-18T09:49:30;25.70;74.80
6954;DHT22;3516;47.980;8.808;2022-08-18T09:51:58;25.70;74.70
6954;DHT22;3516;47.980;8.808;2022-08-18T09:54:26;25.70;74.80
6954;DHT22;3516;47.980;8.808;2022-08-18T09:56:55;25.70;74.70
6954;DHT22;3516;47.980;8.808;2022-08-18T10:02:11;25.70;74.60
6954;DHT22;3516;47.980;8.808;2022-08-18T10:04:39;25.70;74.60
6954;DHT22;3516;47.980;8.808;2022-08-18T10:07:17;25.70;74.50
6954;DHT22;3516;47.980;8.808;2022-08-18T10:09:47;25.70;74.50
6954;DHT22;3516;47.980;8.808;2022-08-18T10:12:31;25.70;74.40
6954;DHT22;3516;47.980;8.808;2022-08-18T10:15:11;25.70;74.30
6954;DHT22;3516;47.980;8.808;2022-08-18T10:17:52;25.70;74.30
6954;DHT22;3516;47.980;8.808;2022-08-18T10:20:24;25.70;74.20
6954;DHT22;3516;47.980;8.808;2022-08-18T10:22:55;25.70;74.10
6954;DHT22;3516;47.980;8.808;2022-08-18T10:25:36;25.70;74.00
6954;DHT22;3516;47.980;8.808;2022-08-18T10:28:04;25.80;74.00
6954;DHT22;3516;47.980;8.808;2022-08-18T10:30:44;25.70;73.70
6954;DHT22;3516;47.980;8.808;2022-08-18T10:33:13;25.70;73.70
6954;DHT22;3516;47.980;8.808;2022-08-18T10:36:01;25.80;73.80
6954;DHT22;3516;47.980;8.808;2022-08-18T10:38:34;25.80;73.80
6954;DHT22;3516;47.980;8.808;2022-08-18T10:41:04;25.80;73.80
6954;DHT22;3516;47.980;8.808;2022-08-18T10:43:34;25.80;73.80
6954;DHT22;3516;47.980;8.808;2022-08-18T10:46:01;25.80;73.80
6954;DHT22;3516;47.980;8.808;2022-08-18T10:48:29;25.80;73.80
6954;DHT22;3516;47.980;8.808;2022-08-18T10:50:58;25.80;73.80
6954;DHT22;3516;47.980;8.808;2022-08-18T10:53:29;25.80;73.80
6954;DHT22;3516;47.980;8.808;2022-08-18T10:56:00;25.80;73.80
6954;DHT22;3516;47.980;8.808;2022-08-18T11:01:18;25.80;73.80
6954;DHT22;3516;47.980;8.808;2022-08-18T11:06:38;25.80;73.60
6954;DHT22;3516;47.980;8.808;2022-08-18T11:09:08;25.80;73.50
6954;DHT22;3516;47.980;8.808;2022-08-18T11:11:36;25.80;73.30
6954;DHT22;3516;47.980;8.808;2022-08-18T11:14:18;25.80;73.20
6954;DHT22;3516;47.980;8.808;2022-08-18T11:16:49;25.80;73.20
6954;DHT22;3516;47.980;8.808;2022-08-18T11:19:18;25.80;73.10
6954;DHT22;3516;47.980;8.808;2022-08-18T11:21:47;25.80;72.90
6954;DHT22;3516;47.980;8.808;2022-08-18T11:24:16;25.80;72.80
6954;DHT22;3516;47.980;8.808;2022-08-18T11:26:46;25.80;72.70
6954;DHT22;3516;47.980;8.808;2022-08-18T11:29:16;25.80;72.70
6954;DHT22;3516;47.980;8.808;2022-08-18T11:31:44;25.80;72.60
6954;DHT22;3516;47.980;8.808;2022-08-18T11:34:11;25.80;72.50
6954;DHT22;3516;47.980;8.808;2022-08-18T11:36:40;25.80;72.40
6954;DHT22;3516;47.980;8.808;2022-08-18T11:39:07;25.80;72.30
6954;DHT22;3516;47.980;8.808;2022-08-18T11:41:36;25.80;72.30
6954;DHT22;3516;47.980;8.808;2022-08-18T11:44:05;25.80;72.40
6954;DHT22;3516;47.980;8.808;2022-08-18T11:46:40;25.80;72.40
6954;DHT22;3516;47.980;8.808;2022-08-18T11:49:12;25.80;72.40
6954;DHT22;3516;47.980;8.808;2022-08-18T11:51:51;25.80;72.30
6954;DHT22;3516;47.980;8.808;2022-08-18T11:54:19;25.80;72.30
6954;DHT22;3516;47.980;8.808;2022-08-18T11:56:48;25.80;72.20
6954;DHT22;3516;47.980;8.808;2022-08-18T11:59:30;25.80;72.00
6954;DHT22;3516;47.980;8.808;2022-08-18T12:01:57;25.80;71.90
6954;DHT22;3516;47.980;8.808;2022-08-18T12:04:26;25.80;71.90
6954;DHT22;3516;47.980;8.808;2022-08-18T12:06:56;25.80;71.80
6954;DHT22;3516;47.980;8.808;2022-08-18T12:09:26;25.80;71.70
6954;DHT22;3516;47.980;8.808;2022-08-18T12:11:57;25.80;71.60
6954;DHT22;3516;47.980;8.808;2022-08-18T12:14:26;25.80;71.40
6954;DHT22;3516;47.980;8.808;2022-08-18T12:16:53;25.80;71.10
6954;DHT22;3516;47.980;8.808;2022-08-18T12:19:20;25.80;71.00
6954;DHT22;3516;47.980;8.808;2022-08-18T12:21:48;25.70;70.80
6954;DHT22;3516;47.980;8.808;2022-08-18T12:24:18;25.70;70.70
6954;DHT22;3516;47.980;8.808;2022-08-18T12:26:45;25.70;70.60
6954;DHT22;3516;47.980;8.808;2022-08-18T12:29:13;25.70;70.50
6954;DHT22;3516;47.980;8.808;2022-08-18T12:31:41;25.70;70.30
6954;DHT22;3516;47.980;8.808;2022-08-18T12:34:08;25.70;70.20
6954;DHT22;3516;47.980;8.808;2022-08-18T12:36:34;25.70;70.20
6954;DHT22;3516;47.980;8.808;2022-08-18T12:39:01;25.70;70.10
6954;DHT22;3516;47.980;8.808;2022-08-18T12:41:28;25.70;70.00
6954;DHT22;3516;47.980;8.808;2022-08-18T12:43:54;25.70;69.90
6954;DHT22;3516;47.980;8.808;2022-08-18T12:46:23;25.70;69.70
6954;DHT22;3516;47.980;8.808;2022-08-18T12:48:49;25.70;69.60
6954;DHT22;3516;47.980;8.808;2022-08-18T12:51:16;25.70;69.60
6954;DHT22;3516;47.980;8.808;2022-08-18T12:53:42;25.70;69.50
6954;DHT22;3516;47.980;8.808;2022-08-18T12:56:13;25.70;69.50
6954;DHT22;3516;47.980;8.808;2022-08-18T12:58:41;25.70;69.40
6954;DHT22;3516;47.980;8.808;2022-08-18T13:01:08;25.70;69.30
6954;DHT22;3516;47.980;8.808;2022-08-18T13:03:37;25.70;69.30
6954;DHT22;3516;47.980;8.808;2022-08-18T13:06:04;25.70;69.20
6954;DHT22;3516;47.980;8.808;2022-08-18T13:08:31;25.70;69.20
6954;DHT22;3516;47.980;8.808;2022-08-18T13:10:58;25.70;69.10
6954;DHT22;3516;47.980;8.808;2022-08-18T13:13:25;25.70;69.10
6954;DHT22;3516;47.980;8.808;2022-08-18T13:15:52;25.70;69.10
6954;DHT22;3516;47.980;8.808;2022-08-18T13:18:19;25.70;69.00
6954;DHT22;3516;47.980;8.808;2022-08-18T13:20:47;25.70;69.00
6954;DHT22;3516;47.980;8.808;2022-08-18T13:23:14;25.70;69.00
6954;DHT22;3516;47.980;8.808;2022-08-18T13:25:41;25.70;69.00
6954;DHT22;3516;47.980;8.808;2022-08-18T13:28:08;25.70;68.90
6954;DHT22;3516;47.980;8.808;2022-08-18T13:30:34;25.70;68.90
6954;DHT22;3516;47.980;8.808;2022-08-18T13:33:02;25.70;69.70
6954;DHT22;3516;47.980;8.808;2022-08-18T13:35:28;25.70;68.90
6954;DHT22;3516;47.980;8.808;2022-08-18T13:37:56;25.70;68.90
6954;DHT22;3516;47.980;8.808;2022-08-18T13:40:23;25.70;68.90
6954;DHT22;3516;47.980;8.808;2022-08-18T13:42:50;25.70;68.90
6954;DHT22;3516;47.980;8.808;2022-08-18T13:45:18;25.70;68.80
6954;DHT22;3516;47.980;8.808;2022-08-18T13:47:45;25.70;68.90
6954;DHT22;3516;47.980;8.808;2022-08-18T13:50:13;25.60;68.80
6954;DHT22;3516;47.980;8.808;2022-08-18T13:52:39;25.70;69.10
6954;DHT22;3516;47.980;8.808;2022-08-18T13:55:10;25.70;69.20
6954;DHT22;3516;47.980;8.808;2022-08-18T13:57:37;25.70;69.30
6954;DHT22;3516;47.980;8.808;2022-08-18T14:00:05;25.70;69.40
6954;DHT22;3516;47.980;8.808;2022-08-18T14:02:33;25.70;69.70
6954;DHT22;3516;47.980;8.808;2022-08-18T14:04:59;25.70;69.90
6954;DHT22;3516;47.980;8.808;2022-08-18T14:07:26;25.70;70.20
6954;DHT22;3516;47.980;8.808;2022-08-18T14:09:53;25.70;70.40
6954;DHT22;3516;47.980;8.808;2022-08-18T14:12:22;25.70;71.50
6954;DHT22;3516;47.980;8.808;2022-08-18T14:14:49;25.70;71.00
6954;DHT22;3516;47.980;8.808;2022-08-18T14:17:16;25.70;71.40
6954;DHT22;3516;47.980;8.808;2022-08-18T14:19:42;25.70;71.80
6954;DHT22;3516;47.980;8.808;2022-08-18T14:22:26;25.70;72.20
6954;DHT22;3516;47.980;8.808;2022-08-18T14:25:10;25.70;72.70
6954;DHT22;3516;47.980;8.808;2022-08-18T14:27:56;25.70;73.20
6954;DHT22;3516;47.980;8.808;2022-08-18T14:30:23;25.70;73.70
6954;DHT22;3516;47.980;8.808;2022-08-18T14:32:50;25.70;73.70
6954;DHT22;3516;47.980;8.808;2022-08-18T14:35:17;25.80;74.20
6954;DHT22;3516;47.980;8.808;2022-08-18T14:37:44;25.80;74.80
6954;DHT22;3516;47.980;8.808;2022-08-18T14:40:11;25.80;75.20
6954;DHT22;3516;47.980;8.808;2022-08-18T14:42:38;25.80;75.70
6954;DHT22;3516;47.980;8.808;2022-08-18T14:45:08;25.80;76.20
6954;DHT22;3516;47.980;8.808;2022-08-18T14:47:35;25.80;76.60
6954;DHT22;3516;47.980;8.808;2022-08-18T14:50:02;25.80;77.10
6954;DHT22;3516;47.980;8.808;2022-08-18T14:52:29;25.80;77.50
6954;DHT22;3516;47.980;8.808;2022-08-18T14:54:56;25.80;78.00
6954;DHT22;3516;47.980;8.808;2022-08-18T14:57:22;25.80;78.40
6954;DHT22;3516;47.980;8.808;2022-08-18T14:59:50;25.80;78.90
6954;DHT22;3516;47.980;8.808;2022-08-18T15:02:18;25.80;79.50
6954;DHT22;3516;47.980;8.808;2022-08-18T15:04:45;25.80;79.70
6954;DHT22;3516;47.980;8.808;2022-08-18T15:07:12;25.80;79.90
6954;DHT22;3516;47.980;8.808;2022-08-18T15:09:38;25.80;80.50
6954;DHT22;3516;47.980;8.808;2022-08-18T15:12:05;25.80;81.00
6954;DHT22;3516;47.980;8.808;2022-08-18T15:14:33;25.80;81.40
6954;DHT22;3516;47.980;8.808;2022-08-18T15:17:00;25.80;81.80
6954;DHT22;3516;47.980;8.808;2022-08-18T15:19:29;25.80;82.20
6954;DHT22;3516;47.980;8.808;2022-08-18T15:21:56;25.80;82.60
6954;DHT22;3516;47.980;8.808;2022-08-18T15:24:40;25.80;83.00
6954;DHT22;3516;47.980;8.808;2022-08-18T15:27:29;25.80;83.50
6954;DHT22;3516;47.980;8.808;2022-08-18T15:29:56;25.80;84.00
6954;DHT22;3516;47.980;8.808;2022-08-18T15:32:23;25.80;84.40
6954;DHT22;3516;47.980;8.808;2022-08-18T15:34:51;25.80;84.80
6954;DHT22;3516;47.980;8.808;2022-08-18T15:37:18;25.80;85.10
6954;DHT22;3516;47.980;8.808;2022-08-18T15:39:45;25.80;85.50
6954;DHT22;3516;47.980;8.808;2022-08-18T15:42:12;25.80;85.50
6954;DHT22;3516;47.980;8.808;2022-08-18T15:44:38;25.80;86.30
6954;DHT22;3516;47.980;8.808;2022-08-18T15:47:06;25.80;86.00
6954;DHT22;3516;47.980;8.808;2022-08-18T15:49:32;25.80;86.40
6954;DHT22;3516;47.980;8.808;2022-08-18T15:52:00;25.80;86.70
6954;DHT22;3516;47.980;8.808;2022-08-18T15:54:27;25.70;86.90
6954;DHT22;3516;47.980;8.808;2022-08-18T15:56:54;25.70;87.20
6954;DHT22;3516;47.980;8.808;2022-08-18T15:59:20;25.70;87.50
6954;DHT22;3516;47.980;8.808;2022-08-18T16:01:47;25.70;87.80
6954;DHT22;3516;47.980;8.808;2022-08-18T16:04:14;25.70;88.00
6954;DHT22;3516;47.980;8.808;2022-08-18T16:06:41;25.70;88.10
6954;DHT22;3516;47.980;8.808;2022-08-18T16:09:13;25.70;88.20
6954;DHT22;3516;47.980;8.808;2022-08-18T16:11:41;25.60;88.40
6954;DHT22;3516;47.980;8.808;2022-08-18T16:14:07;25.60;88.60
6954;DHT22;3516;47.980;8.808;2022-08-18T16:16:34;25.60;88.80
6954;DHT22;3516;47.980;8.808;2022-08-18T16:19:01;25.60;88.90
6954;DHT22;3516;47.980;8.808;2022-08-18T16:21:28;25.60;89.00
6954;DHT22;3516;47.980;8.808;2022-08-18T16:23:54;25.60;89.20
6954;DHT22;3516;47.980;8.808;2022-08-18T16:26:22;25.60;89.40
6954;DHT22;3516;47.980;8.808;2022-08-18T16:28:50;25.60;89.60
6954;DHT22;3516;47.980;8.808;2022-08-18T16:31:18;25.60;89.90
6954;DHT22;3516;47.980;8.808;2022-08-18T16:33:49;25.60;90.00
6954;DHT22;3516;47.980;8.808;2022-08-18T16:36:16;25.60;90.10
6954;DHT22;3516;47.980;8.808;2022-08-18T16:38:43;25.60;90.20
6954;DHT22;3516;47.980;8.808;2022-08-18T16:41:12;25.60;90.40
6954;DHT22;3516;47.980;8.808;2022-08-18T16:43:41;25.60;90.40
6954;DHT22;3516;47.980;8.808;2022-08-18T16:46:09;25.60;90.40
6954;DHT22;3516;47.980;8.808;2022-08-18T16:48:36;25.60;90.40
6954;DHT22;3516;47.980;8.808;2022-08-18T16:51:03;25.60;90.40
6954;DHT22;3516;47.980;8.808;2022-08-18T16:53:29;25.60;90.60
6954;DHT22;3516;47.980;8.808;2022-08-18T16:55:56;25.60;90.70
6954;DHT22;3516;47.980;8.808;2022-08-18T16:58:23;25.60;90.80
6954;DHT22;3516;47.980;8.808;2022-08-18T17:01:08;25.60;90.90
6954;DHT22;3516;47.980;8.808;2022-08-18T17:03:52;25.50;91.10
6954;DHT22;3516;47.980;8.808;2022-08-18T17:06:38;25.50;91.30
6954;DHT22;3516;47.980;8.808;2022-08-18T17:09:05;25.50;91.50
6954;DHT22;3516;47.980;8.808;2022-08-18T17:11:34;25.50;91.60
6954;DHT22;3516;47.980;8.808;2022-08-18T17:14:02;25.50;91.70
6954;DHT22;3516;47.980;8.808;2022-08-18T17:16:30;25.50;91.80
6954;DHT22;3516;47.980;8.808;2022-08-18T17:18:58;25.50;91.80
6954;DHT22;3516;47.980;8.808;2022-08-18T17:21:26;25.50;91.90
6954;DHT22;3516;47.980;8.808;2022-08-18T17:23:54;25.40;91.90
6954;DHT22;3516;47.980;8.808;2022-08-18T17:26:26;25.40;92.00
6954;DHT22;3516;47.980;8.808;2022-08-18T17:28:56;25.40;92.10
6954;DHT22;3516;47.980;8.808;2022-08-18T17:31:24;25.40;92.20
6954;DHT22;3516;47.980;8.808;2022-08-18T17:33:53;25.40;92.30
6954;DHT22;3516;47.980;8.808;2022-08-18T17:36:25;25.40;92.40
6954;DHT22;3516;47.980;8.808;2022-08-18T17:38:56;25.40;92.50
6954;DHT22;3516;47.980;8.808;2022-08-18T17:41:24;25.40;92.60
6954;DHT22;3516;47.980;8.808;2022-08-18T17:43:53;25.40;92.60
6954;DHT22;3516;47.980;8.808;2022-08-18T17:46:21;25.50;92.70
6954;DHT22;3516;47.980;8.808;2022-08-18T17:48:54;25.40;92.70
6954;DHT22;3516;47.980;8.808;2022-08-18T17:51:22;25.40;92.70
6954;DHT22;3516;47.980;8.808;2022-08-18T17:53:59;25.40;92.60
6954;DHT22;3516;47.980;8.808;2022-08-18T17:56:28;25.40;92.70
6954;DHT22;3516;47.980;8.808;2022-08-18T17:58:57;25.40;92.90
6954;DHT22;3516;47.980;8.808;2022-08-18T18:01:28;25.40;92.90
6954;DHT22;3516;47.980;8.808;2022-08-18T18:03:57;25.40;92.90
6954;DHT22;3516;47.980;8.808;2022-08-18T18:06:25;25.40;92.90
6954;DHT22;3516;47.980;8.808;2022-08-18T18:08:58;25.40;92.90
6954;DHT22;3516;47.980;8.808;2022-08-18T18:11:26;25.40;93.00
6954;DHT22;3516;47.980;8.808;2022-08-18T18:13:53;25.40;93.10
6954;DHT22;3516;47.980;8.808;2022-08-18T18:16:23;25.40;93.20
6954;DHT22;3516;47.980;8.808;2022-08-18T18:18:52;25.40;93.30
6954;DHT22;3516;47.980;8.808;2022-08-18T18:21:23;25.40;93.30
6954;DHT22;3516;47.980;8.808;2022-08-18T18:23:51;25.40;93.40
6954;DHT22;3516;47.980;8.808;2022-08-18T18:26:20;25.40;93.50
6954;DHT22;3516;47.980;8.808;2022-08-18T18:28:50;25.40;93.50
6954;DHT22;3516;47.980;8.808;2022-08-18T18:31:20;25.40;93.50
6954;DHT22;3516;47.980;8.808;2022-08-18T18:33:56;25.40;93.50
6954;DHT22;3516;47.980;8.808;2022-08-18T18:36:31;25.40;93.50
6954;DHT22;3516;47.980;8.808;2022-08-18T18:39:03;25.40;93.50
6954;DHT22;3516;47.980;8.808;2022-08-18T18:41:31;25.40;93.50
6954;DHT22;3516;47.980;8.808;2022-08-18T18:44:03;25.40;93.50
6954;DHT22;3516;47.980;8.808;2022-08-18T18:46:31;25.40;93.50
6954;DHT22;3516;47.980;8.808;2022-08-18T18:49:02;25.40;93.50
6954;DHT22;3516;47.980;8.808;2022-08-18T18:51:35;25.40;93.50
6954;DHT22;3516;47.980;8.808;2022-08-18T18:54:04;25.40;93.40
6954;DHT22;3516;47.980;8.808;2022-08-18T18:56:37;25.40;93.30
6954;DHT22;3516;47.980;8.808;2022-08-18T18:59:08;25.30;93.20
6954;DHT22;3516;47.980;8.808;2022-08-18T19:01:41;25.30;93.20
6954;DHT22;3516;47.980;8.808;2022-08-18T19:04:11;25.30;93.00
6954;DHT22;3516;47.980;8.808;2022-08-18T19:06:42;25.30;93.00
6954;DHT22;3516;47.980;8.808;2022-08-18T19:09:12;25.30;93.10
6954;DHT22;3516;47.980;8.808;2022-08-18T19:11:46;25.30;93.20
6954;DHT22;3516;47.980;8.808;2022-08-18T19:14:18;25.30;93.20
6954;DHT22;3516;47.980;8.808;2022-08-18T19:16:50;25.30;93.20
6954;DHT22;3516;47.980;8.808;2022-08-18T19:19:20;25.30;93.40
6954;DHT22;3516;47.980;8.808;2022-08-18T19:21:50;25.40;93.50
6954;DHT22;3516;47.980;8.808;2022-08-18T19:24:20;25.40;93.50
6954;DHT22;3516;47.980;8.808;2022-08-18T19:26:51;25.40;93.50
6954;DHT22;3516;47.980;8.808;2022-08-18T19:29:21;25.40;93.60
6954;DHT22;3516;47.980;8.808;2022-08-18T19:31:53;25.40;93.60
6954;DHT22;3516;47.980;8.808;2022-08-18T19:34:22;25.40;93.70
6954;DHT22;3516;47.980;8.808;2022-08-18T19:36:53;25.40;93.80
6954;DHT22;3516;47.980;8.808;2022-08-18T19:39:22;25.40;93.80
6954;DHT22;3516;47.980;8.808;2022-08-18T19:41:53;25.40;93.90
6954;DHT22;3516;47.980;8.808;2022-08-18T19:44:27;25.40;93.90
6954;DHT22;3516;47.980;8.808;2022-08-18T19:46:56;25.40;93.90
6954;DHT22;3516;47.980;8.808;2022-08-18T19:49:25;25.40;94.00
6954;DHT22;3516;47.980;8.808;2022-08-18T19:51:58;25.40;94.00
6954;DHT22;3516;47.980;8.808;2022-08-18T19:54:36;25.40;94.10
6954;DHT22;3516;47.980;8.808;2022-08-18T19:57:11;25.40;94.10
6954;DHT22;3516;47.980;8.808;2022-08-18T19:59:44;25.40;94.10
6954;DHT22;3516;47.980;8.808;2022-08-18T20:02:18;25.40;94.10
6954;DHT22;3516;47.980;8.808;2022-08-18T20:04:54;25.40;94.10
6954;DHT22;3516;47.980;8.808;2022-08-18T20:10:24;25.50;94.30
6954;DHT22;3516;47.980;8.808;2022-08-18T20:13:00;25.50;94.30
6954;DHT22;3516;47.980;8.808;2022-08-18T20:15:31;25.50;94.40
6954;DHT22;3516;47.980;8.808;2022-08-18T20:18:03;25.50;94.40
6954;DHT22;3516;47.980;8.808;2022-08-18T20:20:31;25.50;94.40
6954;DHT22;3516;47.980;8.808;2022-08-18T20:22:58;25.50;94.40
6954;DHT22;3516;47.980;8.808;2022-08-18T20:25:38;25.50;94.50
6954;DHT22;3516;47.980;8.808;2022-08-18T20:28:19;25.50;94.50
6954;DHT22;3516;47.980;8.808;2022-08-18T20:30:52;25.50;94.50
6954;DHT22;3516;47.980;8.808;2022-08-18T20:33:28;25.50;94.60
6954;DHT22;3516;47.980;8.808;2022-08-18T20:36:09;25.50;94.60
6954;DHT22;3516;47.980;8.808;2022-08-18T20:38:37;25.50;94.50
6954;DHT22;3516;47.980;8.808;2022-08-18T20:43:53;25.50;94.50
6954;DHT22;3516;47.980;8.808;2022-08-18T20:46:26;25.50;94.50
6954;DHT22;3516;47.980;8.808;2022-08-18T20:49:00;25.50;94.50
6954;DHT22;3516;47.980;8.808;2022-08-18T20:51:31;25.50;94.50
6954;DHT22;3516;47.980;8.808;2022-08-18T20:54:03;25.50;94.40
6954;DHT22;3516;47.980;8.808;2022-08-18T20:56:33;25.50;94.40
6954;DHT22;3516;47.980;8.808;2022-08-18T20:59:05;25.50;94.40
6954;DHT22;3516;47.980;8.808;2022-08-18T21:01:34;25.50;94.30
6954;DHT22;3516;47.980;8.808;2022-08-18T21:04:00;25.50;94.30
6954;DHT22;3516;47.980;8.808;2022-08-18T21:06:29;25.50;94.30
6954;DHT22;3516;47.980;8.808;2022-08-18T21:09:07;25.50;94.30
6954;DHT22;3516;47.980;8.808;2022-08-18T21:11:37;25.50;94.40
6954;DHT22;3516;47.980;8.808;2022-08-18T21:14:05;25.50;94.20
6954;DHT22;3516;47.980;8.808;2022-08-18T21:16:37;24.60;93.90
6954;DHT22;3516;47.980;8.808;2022-08-18T21:19:06;25.50;94.30
6954;DHT22;3516;47.980;8.808;2022-08-18T21:21:39;25.50;94.30
6954;DHT22;3516;47.980;8.808;2022-08-18T21:24:07;25.50;94.30
6954;DHT22;3516;47.980;8.808;2022-08-18T21:26:44;25.50;94.40
6954;DHT22;3516;47.980;8.808;2022-08-18T21:29:13;25.50;94.40
6954;DHT22;3516;47.980;8.808;2022-08-18T21:31:45;25.80;94.50
6954;DHT22;3516;47.980;8.808;2022-08-18T21:34:28;25.50;94.70
6954;DHT22;3516;47.980;8.808;2022-08-18T21:36:56;25.50;94.70
6954;DHT22;3516;47.980;8.808;2022-08-18T21:39:23;25.50;94.60
6954;DHT22;3516;47.980;8.808;2022-08-18T21:41:51;25.50;94.50
6954;DHT22;3516;47.980;8.808;2022-08-18T21:44:21;25.60;94.50
6954;DHT22;3516;47.980;8.808;2022-08-18T21:46:48;25.60;94.50
6954;DHT22;3516;47.980;8.808;2022-08-18T21:49:26;25.60;94.60
6954;DHT22;3516;47.980;8.808;2022-08-18T21:52:01;25.60;94.60
6954;DHT22;3516;47.980;8.808;2022-08-18T21:54:29;25.60;94.70
6954;DHT22;3516;47.980;8.808;2022-08-18T21:57:19;25.60;94.70
6954;DHT22;3516;47.980;8.808;2022-08-18T22:02:32;25.60;94.70
6954;DHT22;3516;47.980;8.808;2022-08-18T22:04:59;24.40;94.30
6954;DHT22;3516;47.980;8.808;2022-08-18T22:07:26;25.00;94.60
6954;DHT22;3516;47.980;8.808;2022-08-18T22:09:56;25.60;94.90
6954;DHT22;3516;47.980;8.808;2022-08-18T22:12:42;25.60;94.90
6954;DHT22;3516;47.980;8.808;2022-08-18T22:15:35;25.60;94.90
6954;DHT22;3516;47.980;8.808;2022-08-18T22:18:05;25.60;95.00
6954;DHT22;3516;47.980;8.808;2022-08-18T22:23:20;25.60;95.20
6954;DHT22;3516;47.980;8.808;2022-08-18T22:26:07;25.60;95.30
6954;DHT22;3516;47.980;8.808;2022-08-18T22:28:40;25.60;95.40
6954;DHT22;3516;47.980;8.808;2022-08-18T22:31:07;25.60;95.50
6954;DHT22;3516;47.980;8.808;2022-08-18T22:33:40;25.60;95.50
6954;DHT22;3516;47.980;8.808;2022-08-18T22:36:10;26.10;95.70
6954;DHT22;3516;47.980;8.808;2022-08-18T22:38:44;25.60;95.70
6954;DHT22;3516;47.980;8.808;2022-08-18T22:41:13;25.60;95.50
6954;DHT22;3516;47.980;8.808;2022-08-18T22:43:40;25.60;95.60
6954;DHT22;3516;47.980;8.808;2022-08-18T22:46:08;25.60;95.50
6954;DHT22;3516;47.980;8.808;2022-08-18T22:48:35;25.60;95.60
6954;DHT22;3516;47.980;8.808;2022-08-18T22:51:03;25.60;95.50
6954;DHT22;3516;47.980;8.808;2022-08-18T22:53:32;25.60;95.50
6954;DHT22;3516;47.980;8.808;2022-08-18T22:55:59;24.60;95.10
6954;DHT22;3516;47.980;8.808;2022-08-18T22:58:32;25.60;95.60
6954;DHT22;3516;47.980;8.808;2022-08-18T23:01:02;25.60;95.90
6954;DHT22;3516;47.980;8.808;2022-08-18T23:03:30;26.20;95.90
6954;DHT22;3516;47.980;8.808;2022-08-18T23:05:57;25.50;95.80
6954;DHT22;3516;47.980;8.808;2022-08-18T23:08:28;25.60;95.80
6954;DHT22;3516;47.980;8.808;2022-08-18T23:11:01;25.60;95.90
6954;DHT22;3516;47.980;8.808;2022-08-18T23:13:29;25.60;96.10
6954;DHT22;3516;47.980;8.808;2022-08-18T23:15:56;25.60;96.00
6954;DHT22;3516;47.980;8.808;2022-08-18T23:18:23;25.60;96.10
6954;DHT22;3516;47.980;8.808;2022-08-18T23:20:51;25.10;95.70
6954;DHT22;3516;47.980;8.808;2022-08-18T23:23:26;25.60;96.10
6954;DHT22;3516;47.980;8.808;2022-08-18T23:25:55;25.60;96.10
6954;DHT22;3516;47.980;8.808;2022-08-18T23:28:22;25.10;95.70
6954;DHT22;3516;47.980;8.808;2022-08-18T23:30:52;25.60;96.10
6954;DHT22;3516;47.980;8.808;2022-08-18T23:33:25;25.60;96.20
6954;DHT22;3516;47.980;8.808;2022-08-18T23:35:52;25.60;96.30
6954;DHT22;3516;47.980;8.808;2022-08-18T23:38:19;25.60;96.10
6954;DHT22;3516;47.980;8.808;2022-08-18T23:40:47;25.60;96.10
6954;DHT22;3516;47.980;8.808;2022-08-18T23:43:15;25.60;96.30
6954;DHT22;3516;47.980;8.808;2022-08-18T23:45:43;25.60;96.20
6954;DHT22;3516;47.980;8.808;2022-08-18T23:48:11;25.60;96.30
6954;DHT22;3516;47.980;8.808;2022-08-18T23:50:38;25.60;96.30
6954;DHT22;3516;47.980;8.808;2022-08-18T23:53:06;25.60;96.30
